sensor_id;sensor_type;location;lat;lon;timestamp;pressure;altitude;pressure_sealevel;temperature;humidity
48035;BME280;33812;46.480;6.834;2024-03-07T00:00:22;93798.47;;;23.40;32.49
48035;BME280;33812;46.480;6.834;2024-03-07T00:04:24;93797.50;;;23.34;32.34
48035;BME280;33812;46.480;6.834;2024-03-07T00:08:26;93793.75;;;23.28;32.36
48035;BME280;33812;46.480;6.834;2024-03-07T00:12:29;93796.19;;;23.26;32.33
48035;BME280;33812;46.480;6.834;2024-03-07T00:16:32;93791.56;;;23.23;32.40
48035;BME280;33812;46.480;6.834;2024-03-07T00:20:34;93790.16;;;23.18;32.66
48035;BME280;33812;46.480;6.834;2024-03-07T00:24:36;93789.81;;;23.16;32.44
48035;BME280;33812;46.480;6.834;2024-03-07T00:28:40;93783.50;;;23.15;32.54
48035;BME280;33812;46.480;6.834;2024-03-07T00:32:43;93786.41;;;23.12;32.37
48035;BME280;33812;46.480;6.834;2024-03-07T00:36:45;93779.00;;;23.09;32.28
48035;BME280;33812;46.480;6.834;2024-03-07T00:40:47;93789.00;;;23.06;32.33
48035;BME280;33812;46.480;6.834;2024-03-07T00:44:51;93776.78;;;23.03;32.30
48035;BME280;33812;46.480;6.834;2024-03-07T00:48:53;93781.25;;;23.01;32.42
48035;BME280;33812;46.480;6.834;2024-03-07T00:52:54;93779.56;;;23.03;32.44
48035;BME280;33812;46.480;6.834;2024-03-07T00:56:56;93770.47;;;23.03;32.44
48035;BME280;33812;46.480;6.834;2024-03-07T01:00:59;93774.47;;;23.02;32.14
48035;BME280;33812;46.480;6.834;2024-03-07T01:05:01;93777.69;;;23.00;32.35
48035;BME280;33812;46.480;6.834;2024-03-07T01:09:08;93772.94;;;23.01;32.16
48035;BME280;33812;46.480;6.834;2024-03-07T01:13:14;93764.94;;;23.03;31.82
48035;BME280;33812;46.480;6.834;2024-03-07T01:17:21;93760.94;;;23.04;31.89
48035;BME280;33812;46.480;6.834;2024-03-07T01:21:22;93751.97;;;23.00;31.94
48035;BME280;33812;46.480;6.834;2024-03-07T01:25:24;93755.53;;;23.00;31.80
48035;BME280;33812;46.480;6.834;2024-03-07T01:29:26;93749.22;;;23.00;31.59
48035;BME280;33812;46.480;6.834;2024-03-07T01:33:29;93742.13;;;22.99;31.79
48035;BME280;33812;46.480;6.834;2024-03-07T01:37:31;93742.59;;;22.97;31.94
48035;BME280;33812;46.480;6.834;2024-03-07T01:41:33;93738.56;;;22.98;31.75
48035;BME280;33812;46.480;6.834;2024-03-07T01:45:35;93732.72;;;22.96;31.63
48035;BME280;33812;46.480;6.834;2024-03-07T01:49:39;93731.03;;;22.99;31.61
48035;BME280;33812;46.480;6.834;2024-03-07T01:53:41;93726.28;;;22.99;31.47
48035;BME280;33812;46.480;6.834;2024-03-07T01:57:43;93726.28;;;22.99;31.49
48035;BME280;33812;46.480;6.834;2024-03-07T02:01:46;93726.72;;;22.98;31.45
48035;BME280;33812;46.480;6.834;2024-03-07T02:05:49;93720.88;;;22.96;31.83
48035;BME280;33812;46.480;6.834;2024-03-07T02:09:59;93715.19;;;22.99;31.58
48035;BME280;33812;46.480;6.834;2024-03-07T02:14:01;93714.75;;;23.01;31.41
48035;BME280;33812;46.480;6.834;2024-03-07T02:18:03;93710.06;;;22.98;31.35
48035;BME280;33812;46.480;6.834;2024-03-07T02:22:07;93704.53;;;22.98;31.29
48035;BME280;33812;46.480;6.834;2024-03-07T02:26:08;93700.69;;;22.95;31.38
48035;BME280;33812;46.480;6.834;2024-03-07T02:30:11;93698.69;;;22.96;31.42
48035;BME280;33812;46.480;6.834;2024-03-07T02:34:13;93685.13;;;22.98;31.36
48035;BME280;33812;46.480;6.834;2024-03-07T02:38:16;93694.69;;;22.97;31.34
48035;BME280;33812;46.480;6.834;2024-03-07T02:42:18;93689.16;;;22.97;31.30
48035;BME280;33812;46.480;6.834;2024-03-07T02:46:20;93679.28;;;22.96;31.31
48035;BME280;33812;46.480;6.834;2024-03-07T02:50:22;93679.28;;;22.96;31.34
48035;BME280;33812;46.480;6.834;2024-03-07T02:54:26;93671.44;;;22.94;31.17
48035;BME280;33812;46.480;6.834;2024-03-07T02:58:27;93669.75;;;22.97;31.19
48035;BME280;33812;46.480;6.834;2024-03-07T03:02:29;93673.44;;;22.93;31.54
48035;BME280;33812;46.480;6.834;2024-03-07T03:06:31;93665.91;;;22.94;31.29
48035;BME280;33812;46.480;6.834;2024-03-07T03:10:34;93670.66;;;22.93;31.24
48035;BME280;33812;46.480;6.834;2024-03-07T03:14:36;93662.66;;;22.96;31.31
48035;BME280;33812;46.480;6.834;2024-03-07T03:18:38;93666.66;;;22.94;31.51
48035;BME280;33812;46.480;6.834;2024-03-07T03:22:40;93669.41;;;22.94;31.21
48035;BME280;33812;46.480;6.834;2024-03-07T03:26:44;93666.31;;;22.92;31.07
48035;BME280;33812;46.480;6.834;2024-03-07T03:30:50;93670.66;;;22.93;31.08
48035;BME280;33812;46.480;6.834;2024-03-07T03:34:52;93663.88;;;22.94;31.10
48035;BME280;33812;46.480;6.834;2024-03-07T03:38:54;93662.34;;;22.93;31.21
48035;BME280;33812;46.480;6.834;2024-03-07T03:42:57;93661.09;;;22.94;31.00
48035;BME280;33812;46.480;6.834;2024-03-07T03:46:58;93663.56;;;22.92;31.03
48035;BME280;33812;46.480;6.834;2024-03-07T03:51:04;93666.31;;;22.92;30.97
48035;BME280;33812;46.480;6.834;2024-03-07T03:55:08;93665.69;;;22.88;30.89
48035;BME280;33812;46.480;6.834;2024-03-07T03:59:12;93656.59;;;22.88;31.03
48035;BME280;33812;46.480;6.834;2024-03-07T04:03:14;93652.16;;;22.90;30.82
48035;BME280;33812;46.480;6.834;2024-03-07T04:07:16;93653.69;;;22.91;30.90
48035;BME280;33812;46.480;6.834;2024-03-07T04:11:18;93657.72;;;22.90;31.01
48035;BME280;33812;46.480;6.834;2024-03-07T04:15:21;93655.41;;;22.89;30.82
48035;BME280;33812;46.480;6.834;2024-03-07T04:19:27;93651.38;;;22.90;30.81
48035;BME280;33812;46.480;6.834;2024-03-07T04:23:31;93651.72;;;22.92;30.90
48035;BME280;33812;46.480;6.834;2024-03-07T04:27:33;93649.06;;;22.88;30.85
48035;BME280;33812;46.480;6.834;2024-03-07T04:31:38;93646.94;;;22.92;30.39
48035;BME280;33812;46.480;6.834;2024-03-07T04:35:41;93648.16;;;22.91;30.40
48035;BME280;33812;46.480;6.834;2024-03-07T04:39:43;93640.31;;;22.90;30.63
48035;BME280;33812;46.480;6.834;2024-03-07T04:43:44;93638.00;;;22.88;30.53
48035;BME280;33812;46.480;6.834;2024-03-07T04:47:47;93640.75;;;22.88;30.54
48035;BME280;33812;46.480;6.834;2024-03-07T04:51:50;93632.78;;;22.90;30.21
48035;BME280;33812;46.480;6.834;2024-03-07T04:55:53;93626.91;;;22.88;30.55
48035;BME280;33812;46.480;6.834;2024-03-07T04:59:54;93630.88;;;22.87;30.36
48035;BME280;33812;46.480;6.834;2024-03-07T05:03:58;93630.13;;;22.87;30.44
48035;BME280;33812;46.480;6.834;2024-03-07T05:08:02;93636.44;;;22.87;30.52
48035;BME280;33812;46.480;6.834;2024-03-07T05:12:04;93627.81;;;22.85;30.67
48035;BME280;33812;46.480;6.834;2024-03-07T05:16:06;93629.34;;;22.86;30.42
48035;BME280;33812;46.480;6.834;2024-03-07T05:20:10;93626.13;;;22.88;30.28
48035;BME280;33812;46.480;6.834;2024-03-07T05:24:12;93625.66;;;22.89;30.26
48035;BME280;33812;46.480;6.834;2024-03-07T05:28:15;93626.91;;;22.88;30.39
48035;BME280;33812;46.480;6.834;2024-03-07T05:32:21;93629.56;;;23.01;29.02
48035;BME280;33812;46.480;6.834;2024-03-07T05:36:25;93620.59;;;23.19;28.65
48035;BME280;33812;46.480;6.834;2024-03-07T05:40:27;93620.72;;;23.16;28.53
48035;BME280;33812;46.480;6.834;2024-03-07T05:44:29;93625.03;;;23.17;28.50
48035;BME280;33812;46.480;6.834;2024-03-07T05:48:30;93620.41;;;23.14;28.25
48035;BME280;33812;46.480;6.834;2024-03-07T05:52:34;93618.41;;;23.14;28.54
48035;BME280;33812;46.480;6.834;2024-03-07T05:56:36;93615.78;;;23.11;28.59
48035;BME280;33812;46.480;6.834;2024-03-07T06:00:38;93630.56;;;23.08;28.57
48035;BME280;33812;46.480;6.834;2024-03-07T06:04:40;93634.09;;;23.08;28.90
48035;BME280;33812;46.480;6.834;2024-03-07T06:08:44;93628.69;;;23.04;29.18
48035;BME280;33812;46.480;6.834;2024-03-07T06:12:45;93625.00;;;23.08;29.76
48035;BME280;33812;46.480;6.834;2024-03-07T06:16:49;93628.38;;;23.02;29.99
48035;BME280;33812;46.480;6.834;2024-03-07T06:20:52;93622.97;;;22.99;29.87
48035;BME280;33812;46.480;6.834;2024-03-07T06:24:55;93634.03;;;22.99;30.26
48035;BME280;33812;46.480;6.834;2024-03-07T06:29:04;93630.50;;;22.98;30.09
48035;BME280;33812;46.480;6.834;2024-03-07T06:33:09;93637.31;;;22.75;26.42
48035;BME280;33812;46.480;6.834;2024-03-07T06:37:11;93642.97;;;23.03;29.34
48035;BME280;33812;46.480;6.834;2024-03-07T06:41:14;93653.19;;;23.06;29.19
48035;BME280;33812;46.480;6.834;2024-03-07T06:45:16;93645.03;;;23.12;29.67
48035;BME280;33812;46.480;6.834;2024-03-07T06:49:18;93649.22;;;23.16;29.67
48035;BME280;33812;46.480;6.834;2024-03-07T06:53:21;93654.19;;;23.22;29.71
48035;BME280;33812;46.480;6.834;2024-03-07T06:57:27;93654.19;;;23.22;30.25
48035;BME280;33812;46.480;6.834;2024-03-07T07:01:29;93660.03;;;23.24;30.10
48035;BME280;33812;46.480;6.834;2024-03-07T07:05:31;93651.28;;;23.25;30.00
48035;BME280;33812;46.480;6.834;2024-03-07T07:09:35;93654.19;;;23.31;29.71
48035;BME280;33812;46.480;6.834;2024-03-07T07:13:38;93650.53;;;23.34;29.91
48035;BME280;33812;46.480;6.834;2024-03-07T07:17:43;93651.47;;;23.40;29.65
48035;BME280;33812;46.480;6.834;2024-03-07T07:21:47;93649.38;;;23.45;29.72
48035;BME280;33812;46.480;6.834;2024-03-07T07:25:50;93650.91;;;23.46;29.67
48035;BME280;33812;46.480;6.834;2024-03-07T07:29:53;93647.22;;;23.49;29.47
48035;BME280;33812;46.480;6.834;2024-03-07T07:33:55;93648.00;;;23.49;29.09
48035;BME280;33812;46.480;6.834;2024-03-07T07:37:57;93643.53;;;23.52;29.41
48035;BME280;33812;46.480;6.834;2024-03-07T07:42:00;93644.16;;;23.56;29.54
48035;BME280;33812;46.480;6.834;2024-03-07T07:46:03;93641.25;;;23.60;29.99
48035;BME280;33812;46.480;6.834;2024-03-07T07:50:07;93640.78;;;23.61;29.74
48035;BME280;33812;46.480;6.834;2024-03-07T07:54:13;93643.88;;;23.63;29.60
48035;BME280;33812;46.480;6.834;2024-03-07T07:58:14;93640.19;;;23.66;29.64
48035;BME280;33812;46.480;6.834;2024-03-07T08:02:17;93638.34;;;23.63;29.20
48035;BME280;33812;46.480;6.834;2024-03-07T08:06:19;93643.88;;;23.63;29.34
48035;BME280;33812;46.480;6.834;2024-03-07T08:10:21;93637.09;;;23.64;29.23
48035;BME280;33812;46.480;6.834;2024-03-07T08:14:24;93640.00;;;23.61;29.21
48035;BME280;33812;46.480;6.834;2024-03-07T08:18:30;93648.50;;;23.57;29.14
48035;BME280;33812;46.480;6.834;2024-03-07T08:22:32;93632.28;;;23.55;29.36
48035;BME280;33812;46.480;6.834;2024-03-07T08:26:34;93633.53;;;23.54;29.20
48035;BME280;33812;46.480;6.834;2024-03-07T08:30:37;93630.75;;;23.54;29.31
48035;BME280;33812;46.480;6.834;2024-03-07T08:34:40;93621.97;;;23.56;29.22
48035;BME280;33812;46.480;6.834;2024-03-07T08:38:42;93629.97;;;23.54;29.51
48035;BME280;33812;46.480;6.834;2024-03-07T08:42:47;93619.81;;;23.51;29.00
48035;BME280;33812;46.480;6.834;2024-03-07T08:46:50;93621.94;;;23.47;29.29
48035;BME280;33812;46.480;6.834;2024-03-07T08:50:53;93615.19;;;23.48;29.25
48035;BME280;33812;46.480;6.834;2024-03-07T08:54:55;93618.00;;;23.57;28.90
48035;BME280;33812;46.480;6.834;2024-03-07T08:58:57;93615.22;;;23.57;29.34
48035;BME280;33812;46.480;6.834;2024-03-07T09:02:59;93613.19;;;23.58;29.09
48035;BME280;33812;46.480;6.834;2024-03-07T09:07:05;93622.63;;;23.60;29.17
48035;BME280;33812;46.480;6.834;2024-03-07T09:11:07;93617.69;;;23.64;29.27
48035;BME280;33812;46.480;6.834;2024-03-07T09:15:09;93609.06;;;23.62;29.05
48035;BME280;33812;46.480;6.834;2024-03-07T09:19:12;93614.91;;;23.64;29.24
48035;BME280;33812;46.480;6.834;2024-03-07T09:23:15;93607.84;;;23.73;28.70
48035;BME280;33812;46.480;6.834;2024-03-07T09:27:17;93599.66;;;23.78;29.14
48035;BME280;33812;46.480;6.834;2024-03-07T09:31:20;93598.91;;;23.78;28.75
48035;BME280;33812;46.480;6.834;2024-03-07T09:35:21;93595.53;;;23.83;28.92
48035;BME280;33812;46.480;6.834;2024-03-07T09:39:24;93595.53;;;23.83;29.03
48035;BME280;33812;46.480;6.834;2024-03-07T09:43:28;93593.69;;;23.89;29.02
48035;BME280;33812;46.480;6.834;2024-03-07T09:47:32;93594.78;;;23.92;28.74
48035;BME280;33812;46.480;6.834;2024-03-07T09:51:35;93593.38;;;23.97;28.69
48035;BME280;33812;46.480;6.834;2024-03-07T09:55:39;93592.47;;;24.00;28.47
48035;BME280;33812;46.480;6.834;2024-03-07T09:59:42;93597.09;;;24.03;28.86
48035;BME280;33812;46.480;6.834;2024-03-07T10:03:47;93596.19;;;24.06;28.47
48035;BME280;33812;46.480;6.834;2024-03-07T10:07:50;93597.25;;;24.09;28.84
48035;BME280;33812;46.480;6.834;2024-03-07T10:11:57;93590.91;;;24.08;28.94
48035;BME280;33812;46.480;6.834;2024-03-07T10:15:59;93593.41;;;24.06;28.64
48035;BME280;33812;46.480;6.834;2024-03-07T10:20:01;93586.59;;;24.07;28.88
48035;BME280;33812;46.480;6.834;2024-03-07T10:24:06;93598.78;;;24.10;28.75
48035;BME280;33812;46.480;6.834;2024-03-07T10:28:10;93600.66;;;24.13;28.55
48035;BME280;33812;46.480;6.834;2024-03-07T10:32:12;93592.59;;;24.15;28.71
48035;BME280;33812;46.480;6.834;2024-03-07T10:36:14;93593.38;;;24.15;28.86
48035;BME280;33812;46.480;6.834;2024-03-07T10:40:16;93592.16;;;24.17;28.99
48035;BME280;33812;46.480;6.834;2024-03-07T10:44:25;93580.47;;;24.22;28.83
48035;BME280;33812;46.480;6.834;2024-03-07T10:48:29;93583.53;;;24.24;29.03
48035;BME280;33812;46.480;6.834;2024-03-07T10:52:39;93587.41;;;24.26;28.54
48035;BME280;33812;46.480;6.834;2024-03-07T10:56:48;93579.84;;;24.27;28.94
48035;BME280;33812;46.480;6.834;2024-03-07T11:00:58;93580.91;;;24.30;28.97
48035;BME280;33812;46.480;6.834;2024-03-07T11:05:04;93583.06;;;24.35;29.02
48035;BME280;33812;46.480;6.834;2024-03-07T11:09:13;93578.63;;;24.37;28.60
48035;BME280;33812;46.480;6.834;2024-03-07T11:13:15;93573.34;;;24.39;28.87
48035;BME280;33812;46.480;6.834;2024-03-07T11:17:20;93575.50;;;24.45;28.95
48035;BME280;33812;46.480;6.834;2024-03-07T11:21:41;93575.81;;;24.47;29.25
48035;BME280;33812;46.480;6.834;2024-03-07T11:25:43;93566.84;;;24.52;29.07
48035;BME280;33812;46.480;6.834;2024-03-07T11:29:49;93570.25;;;24.56;29.12
48035;BME280;33812;46.480;6.834;2024-03-07T11:34:13;93559.13;;;24.56;29.07
48035;BME280;33812;46.480;6.834;2024-03-07T11:38:19;93556.34;;;24.56;28.73
48035;BME280;33812;46.480;6.834;2024-03-07T11:42:25;93541.53;;;24.59;29.25
48035;BME280;33812;46.480;6.834;2024-03-07T11:46:28;93539.06;;;24.61;28.80
48035;BME280;33812;46.480;6.834;2024-03-07T11:50:37;93531.34;;;24.66;29.06
48035;BME280;33812;46.480;6.834;2024-03-07T11:54:39;93523.28;;;24.68;28.91
48035;BME280;33812;46.480;6.834;2024-03-07T11:58:46;93521.59;;;24.70;29.04
48035;BME280;33812;46.480;6.834;2024-03-07T12:02:54;93525.16;;;24.71;29.31
48035;BME280;33812;46.480;6.834;2024-03-07T12:06:58;93509.06;;;24.75;28.89
48035;BME280;33812;46.480;6.834;2024-03-07T12:11:00;93508.28;;;24.74;29.07
48035;BME280;33812;46.480;6.834;2024-03-07T12:15:04;93498.41;;;24.73;29.17
48035;BME280;33812;46.480;6.834;2024-03-07T12:19:15;93495.34;;;24.71;29.69
48035;BME280;33812;46.480;6.834;2024-03-07T12:23:19;93496.28;;;24.68;29.53
48035;BME280;33812;46.480;6.834;2024-03-07T12:27:21;93481.13;;;24.69;29.33
48035;BME280;33812;46.480;6.834;2024-03-07T12:31:23;93488.41;;;24.67;29.74
48035;BME280;33812;46.480;6.834;2024-03-07T12:35:25;93483.31;;;24.65;29.39
48035;BME280;33812;46.480;6.834;2024-03-07T12:39:32;93484.09;;;24.66;30.10
48035;BME280;33812;46.480;6.834;2024-03-07T12:43:35;93480.53;;;24.65;29.78
48035;BME280;33812;46.480;6.834;2024-03-07T12:47:37;93472.22;;;24.65;29.72
48035;BME280;33812;46.480;6.834;2024-03-07T12:51:40;93469.91;;;24.63;30.33
48035;BME280;33812;46.480;6.834;2024-03-07T12:55:43;93472.22;;;24.65;30.32
48035;BME280;33812;46.480;6.834;2024-03-07T12:59:45;93471.75;;;24.67;29.97
48035;BME280;33812;46.480;6.834;2024-03-07T13:03:47;93455.84;;;24.67;30.26
48035;BME280;33812;46.480;6.834;2024-03-07T13:07:49;93451.03;;;24.68;29.79
48035;BME280;33812;46.480;6.834;2024-03-07T13:11:54;93441.00;;;24.70;30.36
48035;BME280;33812;46.480;6.834;2024-03-07T13:15:55;93444.38;;;24.74;30.33
48035;BME280;33812;46.480;6.834;2024-03-07T13:19:57;93438.38;;;24.76;30.35
48035;BME280;33812;46.480;6.834;2024-03-07T13:24:00;93430.59;;;24.80;29.99
48035;BME280;33812;46.480;6.834;2024-03-07T13:28:06;93428.13;;;24.82;29.82
48035;BME280;33812;46.480;6.834;2024-03-07T13:32:09;93429.66;;;24.83;29.85
48035;BME280;33812;46.480;6.834;2024-03-07T13:36:13;93423.66;;;24.85;30.24
48035;BME280;33812;46.480;6.834;2024-03-07T13:40:21;93427.50;;;24.87;30.02
48035;BME280;33812;46.480;6.834;2024-03-07T13:44:28;93420.22;;;24.90;30.38
48035;BME280;33812;46.480;6.834;2024-03-07T13:48:29;93417.00;;;24.92;30.39
48035;BME280;33812;46.480;6.834;2024-03-07T13:52:33;93419.31;;;24.93;30.14
48035;BME280;33812;46.480;6.834;2024-03-07T13:56:50;93417.59;;;24.96;30.07
48035;BME280;33812;46.480;6.834;2024-03-07T14:01:08;93408.03;;;24.97;30.03
48035;BME280;33812;46.480;6.834;2024-03-07T14:05:56;93404.28;;;25.00;29.96
48035;BME280;33812;46.480;6.834;2024-03-07T14:10:19;93391.91;;;25.01;30.46
48035;BME280;33812;46.480;6.834;2024-03-07T14:24:06;93390.78;;;25.08;30.26
48035;BME280;33812;46.480;6.834;2024-03-07T14:28:40;93385.53;;;25.10;30.11
48035;BME280;33812;46.480;6.834;2024-03-07T14:32:46;93383.81;;;25.13;30.47
48035;BME280;33812;46.480;6.834;2024-03-07T14:36:55;93373.94;;;25.11;29.99
48035;BME280;33812;46.480;6.834;2024-03-07T14:40:58;93376.06;;;25.17;30.44
48035;BME280;33812;46.480;6.834;2024-03-07T14:45:00;93376.34;;;25.19;30.42
48035;BME280;33812;46.480;6.834;2024-03-07T14:49:08;93375.13;;;25.20;29.95
48035;BME280;33812;46.480;6.834;2024-03-07T14:53:13;93375.41;;;25.22;29.94
48035;BME280;33812;46.480;6.834;2024-03-07T14:57:17;93364.56;;;25.24;29.97
48035;BME280;33812;46.480;6.834;2024-03-07T15:01:19;93353.44;;;25.24;30.13
48035;BME280;33812;46.480;6.834;2024-03-07T15:05:21;93353.44;;;25.24;30.22
48035;BME280;33812;46.480;6.834;2024-03-07T15:09:24;93352.50;;;25.27;30.41
48035;BME280;33812;46.480;6.834;2024-03-07T15:13:30;93348.47;;;25.28;30.31
48035;BME280;33812;46.480;6.834;2024-03-07T15:17:32;93337.34;;;25.28;30.05
48035;BME280;33812;46.480;6.834;2024-03-07T15:21:34;93334.88;;;25.30;30.41
48035;BME280;33812;46.480;6.834;2024-03-07T15:25:39;93332.34;;;25.32;30.38
48035;BME280;33812;46.480;6.834;2024-03-07T15:29:41;93322.78;;;25.33;30.45
48035;BME280;33812;46.480;6.834;2024-03-07T15:33:42;93323.56;;;25.34;30.04
48035;BME280;33812;46.480;6.834;2024-03-07T15:37:45;93311.97;;;25.35;30.47
48035;BME280;33812;46.480;6.834;2024-03-07T15:41:50;93317.78;;;25.38;30.34
48035;BME280;33812;46.480;6.834;2024-03-07T15:45:52;93306.66;;;25.38;29.96
48035;BME280;33812;46.480;6.834;2024-03-07T15:49:54;93301.41;;;25.40;30.24
48035;BME280;33812;46.480;6.834;2024-03-07T15:53:56;93297.09;;;25.39;30.38
48035;BME280;33812;46.480;6.834;2024-03-07T15:58:00;93292.75;;;25.38;29.94
48035;BME280;33812;46.480;6.834;2024-03-07T16:02:05;93293.22;;;25.36;30.01
48035;BME280;33812;46.480;6.834;2024-03-07T16:06:06;93293.41;;;25.32;30.45
48035;BME280;33812;46.480;6.834;2024-03-07T16:10:09;93290.31;;;22.42;25.97
48035;BME280;33812;46.480;6.834;2024-03-07T16:14:14;93286.47;;;22.49;25.85
48035;BME280;33812;46.480;6.834;2024-03-07T16:18:16;93282.38;;;21.49;26.11
48035;BME280;33812;46.480;6.834;2024-03-07T16:22:18;93285.28;;;21.68;26.51
48035;BME280;33812;46.480;6.834;2024-03-07T16:26:20;93275.41;;;23.96;25.18
48035;BME280;33812;46.480;6.834;2024-03-07T16:30:23;93267.66;;;24.43;26.33
48035;BME280;33812;46.480;6.834;2024-03-07T16:34:26;93274.81;;;24.59;26.65
48035;BME280;33812;46.480;6.834;2024-03-07T16:38:28;93269.50;;;24.71;26.79
48035;BME280;33812;46.480;6.834;2024-03-07T16:42:29;93276.41;;;24.75;27.79
48035;BME280;33812;46.480;6.834;2024-03-07T16:46:35;93277.28;;;24.82;28.04
48035;BME280;33812;46.480;6.834;2024-03-07T16:50:38;93279.59;;;24.83;28.31
48035;BME280;33812;46.480;6.834;2024-03-07T16:54:41;93267.41;;;24.81;28.21
48035;BME280;33812;46.480;6.834;2024-03-07T16:58:42;93269.72;;;24.82;29.00
48035;BME280;33812;46.480;6.834;2024-03-07T17:02:46;93260.44;;;24.85;29.06
48035;BME280;33812;46.480;6.834;2024-03-07T17:06:50;93253.66;;;24.86;29.79
48035;BME280;33812;46.480;6.834;2024-03-07T17:10:52;93260.72;;;24.87;29.75
48035;BME280;33812;46.480;6.834;2024-03-07T17:14:54;93266.47;;;24.84;29.98
48035;BME280;33812;46.480;6.834;2024-03-07T17:18:57;93265.69;;;24.83;29.97
48035;BME280;33812;46.480;6.834;2024-03-07T17:22:59;93268.06;;;24.75;30.06
48035;BME280;33812;46.480;6.834;2024-03-07T17:27:01;93261.63;;;24.69;31.07
48035;BME280;33812;46.480;6.834;2024-03-07T17:31:04;93263.81;;;24.65;31.06
48035;BME280;33812;46.480;6.834;2024-03-07T17:35:07;93277.91;;;24.61;31.07
48035;BME280;33812;46.480;6.834;2024-03-07T17:39:11;93276.81;;;24.59;31.25
48035;BME280;33812;46.480;6.834;2024-03-07T17:43:14;93271.75;;;24.57;31.45
48035;BME280;33812;46.480;6.834;2024-03-07T17:47:17;93281.31;;;24.56;31.36
48035;BME280;33812;46.480;6.834;2024-03-07T17:51:21;93287.19;;;24.58;31.91
48035;BME280;33812;46.480;6.834;2024-03-07T17:55:23;93286.53;;;24.63;30.33
48035;BME280;33812;46.480;6.834;2024-03-07T17:59:25;93275.06;;;24.71;30.36
48035;BME280;33812;46.480;6.834;2024-03-07T18:03:28;93282.19;;;24.62;29.86
48035;BME280;33812;46.480;6.834;2024-03-07T18:07:32;93276.66;;;24.62;30.21
48035;BME280;33812;46.480;6.834;2024-03-07T18:11:34;93282.19;;;24.62;30.67
48035;BME280;33812;46.480;6.834;2024-03-07T18:15:35;93286.84;;;24.66;31.06
48035;BME280;33812;46.480;6.834;2024-03-07T18:19:40;93281.00;;;24.79;30.76
48035;BME280;33812;46.480;6.834;2024-03-07T18:23:43;93282.31;;;24.68;30.84
48035;BME280;33812;46.480;6.834;2024-03-07T18:27:46;93276.16;;;24.64;31.06
48035;BME280;33812;46.480;6.834;2024-03-07T18:31:48;93280.69;;;24.61;30.81
48035;BME280;33812;46.480;6.834;2024-03-07T18:35:50;93280.03;;;24.67;29.09
48035;BME280;33812;46.480;6.834;2024-03-07T18:39:54;93266.72;;;24.71;30.13
48035;BME280;33812;46.480;6.834;2024-03-07T18:43:56;93270.72;;;24.70;30.75
48035;BME280;33812;46.480;6.834;2024-03-07T18:47:58;93267.44;;;24.56;30.99
48035;BME280;33812;46.480;6.834;2024-03-07T18:52:07;93269.22;;;24.44;31.44
48035;BME280;33812;46.480;6.834;2024-03-07T18:56:11;93265.53;;;24.38;31.68
48035;BME280;33812;46.480;6.834;2024-03-07T19:00:14;93268.22;;;24.32;31.67
48035;BME280;33812;46.480;6.834;2024-03-07T19:04:28;93263.00;;;24.25;31.91
48035;BME280;33812;46.480;6.834;2024-03-07T19:08:30;93267.00;;;24.24;32.22
48035;BME280;33812;46.480;6.834;2024-03-07T19:12:35;93262.38;;;24.21;32.44
48035;BME280;33812;46.480;6.834;2024-03-07T19:16:38;93260.88;;;24.20;32.42
48035;BME280;33812;46.480;6.834;2024-03-07T19:20:42;93263.66;;;24.20;33.80
48035;BME280;33812;46.480;6.834;2024-03-07T19:24:44;93260.69;;;24.14;34.70
48035;BME280;33812;46.480;6.834;2024-03-07T19:28:50;93261.19;;;24.12;34.81
48035;BME280;33812;46.480;6.834;2024-03-07T19:32:52;93264.13;;;24.18;35.14
48035;BME280;33812;46.480;6.834;2024-03-07T19:36:55;93260.88;;;24.20;34.96
48035;BME280;33812;46.480;6.834;2024-03-07T19:40:57;93261.75;;;24.26;35.37
48035;BME280;33812;46.480;6.834;2024-03-07T19:45:03;93247.09;;;24.25;34.93
48035;BME280;33812;46.480;6.834;2024-03-07T19:49:04;93252.28;;;24.33;34.89
48035;BME280;33812;46.480;6.834;2024-03-07T19:53:06;93248.28;;;24.34;34.89
48035;BME280;33812;46.480;6.834;2024-03-07T19:57:16;93251.66;;;24.38;34.97
48035;BME280;33812;46.480;6.834;2024-03-07T20:01:20;93249.66;;;24.38;34.87
48035;BME280;33812;46.480;6.834;2024-03-07T20:05:22;93254.25;;;24.42;34.97
48035;BME280;33812;46.480;6.834;2024-03-07T20:09:26;93255.81;;;24.43;35.01
48035;BME280;33812;46.480;6.834;2024-03-07T20:13:29;93257.31;;;24.44;34.46
48035;BME280;33812;46.480;6.834;2024-03-07T20:17:39;93260.22;;;24.49;34.35
48035;BME280;33812;46.480;6.834;2024-03-07T20:21:43;93257.75;;;24.51;34.49
48035;BME280;33812;46.480;6.834;2024-03-07T20:25:45;93251.41;;;24.51;34.54
48035;BME280;33812;46.480;6.834;2024-03-07T20:29:47;93251.25;;;24.55;34.09
48035;BME280;33812;46.480;6.834;2024-03-07T20:33:50;93256.03;;;24.54;34.60
48035;BME280;33812;46.480;6.834;2024-03-07T20:37:55;93253.84;;;24.58;34.52
48035;BME280;33812;46.480;6.834;2024-03-07T20:41:57;93255.38;;;24.59;34.31
48035;BME280;33812;46.480;6.834;2024-03-07T20:46:00;93253.19;;;24.63;33.95
48035;BME280;33812;46.480;6.834;2024-03-07T20:50:05;93250.97;;;24.68;33.82
48035;BME280;33812;46.480;6.834;2024-03-07T20:54:10;93257.78;;;24.67;33.70
48035;BME280;33812;46.480;6.834;2024-03-07T20:58:15;93253.50;;;24.66;33.58
48035;BME280;33812;46.480;6.834;2024-03-07T21:02:17;93245.59;;;24.64;33.45
48035;BME280;33812;46.480;6.834;2024-03-07T21:06:20;93241.13;;;24.67;33.63
48035;BME280;33812;46.480;6.834;2024-03-07T21:10:23;93244.84;;;24.63;33.77
48035;BME280;33812;46.480;6.834;2024-03-07T21:14:28;93245.81;;;24.60;33.47
48035;BME280;33812;46.480;6.834;2024-03-07T21:18:31;93240.91;;;24.55;33.44
48035;BME280;33812;46.480;6.834;2024-03-07T21:22:34;93244.63;;;24.52;33.51
48035;BME280;33812;46.480;6.834;2024-03-07T21:26:36;93247.88;;;24.50;33.53
48035;BME280;33812;46.480;6.834;2024-03-07T21:30:39;93233.84;;;24.45;34.02
48035;BME280;33812;46.480;6.834;2024-03-07T21:34:43;93236.84;;;24.41;33.74
48035;BME280;33812;46.480;6.834;2024-03-07T21:38:46;93230.50;;;24.41;32.31